Terminal Aerodrome Forecast
Issued by NWS Cleveland, OH

Home | Current Version | Previous Version | Text Only | Print | Product List | Glossary On
Versions: 1 2 3 4 5 6 7 8 9 10 11 12 13 14 15 16 17 18 19
000
FTUS41 KCLE 262326
TAFERI
TAF
KERI 262326Z 2700/2724 VRB04KT P6SM FEW080 SCT200
     FM270400 16005KT P6SM SCT070 BKN200
     FM271700 28007KT P6SM SCT045 BKN200
     FM272000 31006KT P6SM SCT050 BKN200=

USA.gov is the U.S. government's official web portal to all federal, state and local government web resources and services.